createdAt,value
2023-04-15T00:02:14.842Z,6.15
2023-04-15T00:04:41.533Z,6.11
2023-04-15T00:07:08.692Z,6.05
2023-04-15T00:09:35.334Z,6.05
2023-04-15T00:12:02.111Z,6.05
2023-04-15T00:14:28.815Z,6.07
2023-04-15T00:16:57.366Z,6.02
2023-04-15T00:19:24.773Z,5.97
2023-04-15T00:21:51.518Z,5.87
2023-04-15T00:24:18.200Z,5.82
2023-04-15T00:26:44.828Z,5.75
2023-04-15T00:29:11.450Z,5.68
2023-04-15T00:31:38.378Z,5.67
2023-04-15T00:34:05.003Z,5.64
2023-04-15T00:36:32.106Z,5.69
2023-04-15T00:38:59.182Z,5.62
2023-04-15T00:41:26.017Z,5.55
2023-04-15T00:43:52.858Z,5.54
2023-04-15T00:46:21.376Z,5.55
2023-04-15T00:48:48.216Z,5.49
2023-04-15T00:51:14.957Z,5.40
2023-04-15T00:53:41.501Z,5.37
2023-04-15T00:56:08.151Z,5.47
2023-04-15T00:58:34.900Z,5.49
2023-04-15T01:01:01.975Z,5.41
2023-04-15T01:03:29.601Z,5.44
2023-04-15T01:05:58.346Z,5.37
2023-04-15T01:08:28.589Z,5.36
2023-04-15T01:11:01.570Z,5.43
2023-04-15T01:13:28.745Z,5.32
2023-04-15T01:15:57.805Z,5.23
2023-04-15T01:18:24.661Z,5.23
2023-04-15T01:20:51.721Z,5.19
2023-04-15T01:23:18.689Z,5.05
2023-04-15T01:25:46.693Z,4.92
2023-04-15T01:28:13.381Z,4.88
2023-04-15T01:30:40.047Z,4.75
2023-04-15T01:33:06.776Z,4.75
2023-04-15T01:35:33.673Z,4.75
2023-04-15T01:38:06.258Z,4.78
2023-04-15T01:40:33.804Z,4.80
2023-04-15T01:43:01.277Z,4.69
2023-04-15T01:45:28.851Z,4.60
2023-04-15T01:47:55.865Z,4.53
2023-04-15T01:50:22.553Z,4.55
2023-04-15T01:52:49.157Z,4.70
2023-04-15T01:55:16.131Z,4.69
2023-04-15T01:57:42.797Z,4.59
2023-04-15T02:00:09.857Z,4.43
2023-04-15T02:02:36.710Z,4.44
2023-04-15T02:05:05.639Z,4.35
2023-04-15T02:07:32.477Z,4.11
2023-04-15T02:09:59.246Z,4.02
2023-04-15T02:12:25.999Z,4.11
2023-04-15T02:14:52.665Z,3.73
2023-04-15T02:17:19.351Z,3.65
2023-04-15T02:19:45.980Z,3.79
2023-04-15T02:22:18.457Z,3.97
2023-04-15T02:24:46.659Z,4.03
2023-04-15T02:27:18.052Z,4.02
2023-04-15T02:29:48.440Z,3.92
2023-04-15T02:32:15.099Z,3.84
2023-04-15T02:34:42.913Z,3.94
2023-04-15T02:37:12.123Z,3.97
2023-04-15T02:39:39.042Z,3.88
2023-04-15T02:42:06.175Z,3.95
2023-04-15T02:44:34.121Z,4.09
2023-04-15T02:47:00.773Z,4.07
2023-04-15T02:49:29.828Z,4.13
2023-04-15T02:51:58.178Z,4.06
2023-04-15T02:54:25.044Z,4.04
2023-04-15T02:56:55.299Z,3.92
2023-04-15T02:59:22.047Z,3.92
2023-04-15T03:01:48.772Z,3.83
2023-04-15T03:04:15.691Z,3.89
2023-04-15T03:06:42.594Z,3.86
2023-04-15T03:09:09.472Z,3.90
2023-04-15T03:11:40.655Z,3.87
2023-04-15T03:14:07.315Z,3.89
2023-04-15T03:16:33.946Z,3.89
2023-04-15T03:19:00.962Z,3.84
2023-04-15T03:21:27.903Z,3.75
2023-04-15T03:23:54.476Z,3.75
2023-04-15T03:26:31.737Z,3.75
2023-04-15T03:28:58.569Z,3.76
2023-04-15T03:31:25.541Z,3.72
2023-04-15T03:33:52.111Z,3.74
2023-04-15T03:36:18.854Z,3.69
2023-04-15T03:38:45.826Z,3.70
2023-04-15T03:41:13.193Z,3.72
2023-04-15T03:43:39.788Z,3.88
2023-04-15T03:46:06.876Z,3.92
2023-04-15T03:48:33.548Z,3.83
2023-04-15T03:51:00.157Z,3.92
2023-04-15T03:53:26.776Z,3.85
2023-04-15T03:55:53.472Z,3.88
2023-04-15T03:58:20.049Z,3.93
2023-04-15T04:00:46.715Z,3.93
2023-04-15T04:03:13.796Z,3.97
2023-04-15T04:05:41.612Z,3.98
2023-04-15T04:08:08.363Z,4.07
2023-04-15T04:10:35.214Z,4.08
2023-04-15T04:13:02.100Z,4.11
2023-04-15T04:15:28.697Z,4.13
2023-04-15T04:17:55.581Z,4.03
2023-04-15T04:20:22.204Z,4.00
2023-04-15T04:22:48.843Z,4.05
2023-04-15T04:25:15.467Z,4.03
2023-04-15T04:27:42.276Z,3.98
2023-04-15T04:30:09.138Z,3.83
2023-04-15T04:32:35.854Z,3.90
2023-04-15T04:35:03.734Z,3.85
2023-04-15T04:37:30.456Z,4.00
2023-04-15T04:39:57.061Z,4.04
2023-04-15T04:42:23.729Z,4.03
2023-04-15T04:44:50.394Z,4.05
2023-04-15T04:47:17.168Z,4.02
2023-04-15T04:49:43.806Z,4.13
2023-04-15T04:52:10.470Z,4.34
2023-04-15T04:54:37.349Z,4.48
2023-04-15T04:57:03.907Z,4.53
2023-04-15T04:59:30.826Z,4.55
2023-04-15T05:01:57.563Z,4.59
2023-04-15T05:04:24.266Z,4.80
2023-04-15T05:06:51.012Z,5.02
2023-04-15T05:09:17.974Z,4.91
2023-04-15T05:11:44.594Z,4.82
2023-04-15T05:14:11.209Z,4.91
2023-04-15T05:16:38.027Z,4.89
2023-04-15T05:19:04.647Z,5.01
2023-04-15T05:21:31.850Z,5.17
2023-04-15T05:23:58.465Z,5.15
2023-04-15T05:26:25.171Z,5.26
2023-04-15T05:28:51.802Z,5.36
2023-04-15T05:31:18.562Z,5.26
2023-04-15T05:33:45.301Z,5.32
2023-04-15T05:36:12.224Z,5.58
2023-04-15T05:38:38.919Z,5.71
2023-04-15T05:41:05.836Z,5.72
2023-04-15T05:43:32.593Z,5.62
2023-04-15T05:45:59.275Z,5.86
2023-04-15T05:48:25.973Z,5.85
2023-04-15T05:50:52.724Z,5.72
2023-04-15T05:53:19.463Z,5.78
2023-04-15T05:55:46.189Z,5.80
2023-04-15T05:58:13.081Z,5.87
2023-04-15T06:00:40.485Z,6.08
2023-04-15T06:03:07.917Z,6.23
2023-04-15T06:05:34.753Z,6.39
2023-04-15T06:08:01.631Z,6.36
2023-04-15T06:10:28.370Z,6.59
2023-04-15T06:12:55.082Z,6.81
2023-04-15T06:15:21.766Z,6.91
2023-04-15T06:17:48.443Z,6.83
2023-04-15T06:20:15.244Z,7.08
2023-04-15T06:22:42.021Z,7.29
2023-04-15T06:25:09.416Z,7.45
2023-04-15T06:27:36.087Z,7.39
2023-04-15T06:30:02.849Z,7.37
2023-04-15T06:32:30.146Z,7.49
2023-04-15T06:34:56.823Z,7.56
2023-04-15T06:37:23.497Z,7.88
2023-04-15T06:39:50.089Z,8.07
2023-04-15T06:42:16.808Z,8.24
2023-04-15T06:44:43.701Z,8.26
2023-04-15T06:47:10.320Z,8.35
2023-04-15T06:49:37.142Z,8.53
2023-04-15T06:52:05.047Z,8.59
2023-04-15T06:54:32.181Z,8.76
2023-04-15T06:56:58.827Z,8.87
2023-04-15T06:59:25.487Z,8.94
2023-04-15T07:01:52.239Z,9.12
2023-04-15T07:04:18.963Z,9.01
2023-04-15T07:06:46.176Z,9.16
2023-04-15T07:09:12.898Z,9.38
2023-04-15T07:11:39.513Z,9.61
2023-04-15T07:14:06.781Z,9.83
2023-04-15T07:16:33.522Z,9.70
2023-04-15T07:19:00.372Z,9.88
2023-04-15T07:21:27.755Z,10.20
2023-04-15T07:23:54.447Z,10.76
2023-04-15T07:26:21.077Z,11.01
2023-04-15T07:28:47.637Z,11.12
2023-04-15T07:31:15.048Z,11.13
2023-04-15T07:33:41.926Z,11.37
2023-04-15T07:36:08.800Z,11.73
2023-04-15T07:38:35.355Z,12.06
2023-04-15T07:41:01.941Z,12.12
2023-04-15T07:43:28.509Z,12.13
2023-04-15T07:45:55.558Z,12.24
2023-04-15T07:48:22.110Z,12.25
2023-04-15T07:50:48.649Z,12.45
2023-04-15T07:53:15.507Z,12.43
2023-04-15T07:55:42.053Z,12.35
2023-04-15T07:58:08.457Z,12.38
2023-04-15T08:00:34.929Z,12.48
2023-04-15T08:03:01.839Z,12.55
2023-04-15T08:05:28.797Z,12.34
2023-04-15T08:07:55.285Z,12.38
2023-04-15T08:10:22.371Z,12.54
2023-04-15T08:12:49.612Z,12.56
2023-04-15T08:15:16.839Z,12.50
2023-04-15T08:17:43.679Z,12.60
2023-04-15T08:20:10.502Z,12.67
2023-04-15T08:22:37.122Z,12.89
2023-04-15T08:25:03.765Z,12.94
2023-04-15T08:27:30.218Z,12.98
2023-04-15T08:29:56.721Z,12.85
2023-04-15T08:32:23.235Z,12.79
2023-04-15T08:34:49.777Z,12.92
2023-04-15T08:37:16.423Z,13.37
2023-04-15T08:39:44.228Z,13.68
2023-04-15T08:42:22.830Z,13.89
2023-04-15T08:44:49.654Z,14.29
2023-04-15T08:47:18.705Z,14.56
2023-04-15T08:49:45.420Z,14.66
2023-04-15T08:52:12.406Z,14.54
2023-04-15T08:54:38.968Z,14.66
2023-04-15T08:57:06.900Z,14.69
2023-04-15T08:59:33.493Z,14.64
2023-04-15T09:02:00.119Z,14.65
2023-04-15T09:04:28.214Z,14.78
2023-04-15T09:06:54.762Z,14.74
2023-04-15T09:09:21.340Z,14.57
2023-04-15T09:11:51.549Z,14.45
2023-04-15T09:14:18.592Z,14.60
2023-04-15T09:17:04.298Z,14.58
2023-04-15T09:19:39.911Z,14.71
2023-04-15T09:22:06.438Z,14.82
2023-04-15T09:24:43.599Z,14.85
2023-04-15T09:27:10.277Z,14.77
2023-04-15T09:29:43.236Z,14.99
2023-04-15T09:32:13.645Z,15.11
2023-04-15T09:34:40.189Z,15.33
2023-04-15T09:37:07.810Z,15.70
2023-04-15T09:39:53.463Z,16.26
2023-04-15T09:42:27.059Z,16.11
2023-04-15T09:44:53.919Z,15.95
2023-04-15T09:47:33.021Z,16.02
2023-04-15T09:50:00.474Z,16.16
2023-04-15T09:52:27.551Z,15.98
2023-04-15T09:54:59.374Z,15.89
2023-04-15T09:57:33.667Z,15.87
2023-04-15T10:00:00.290Z,15.70
2023-04-15T10:02:27.361Z,15.75
2023-04-15T10:04:54.782Z,15.61
2023-04-15T10:07:22.604Z,15.43
2023-04-15T10:09:49.481Z,15.57
2023-04-15T10:12:26.777Z,15.76
2023-04-15T10:14:56.833Z,15.77
2023-04-15T10:17:23.752Z,15.98
2023-04-15T10:19:53.381Z,16.36
2023-04-15T10:22:20.016Z,16.80
2023-04-15T10:24:47.304Z,17.15
2023-04-15T10:27:14.239Z,16.42
2023-04-15T10:29:48.041Z,16.24
2023-04-15T10:32:14.936Z,16.52
2023-04-15T10:34:42.459Z,16.71
2023-04-15T10:37:10.061Z,16.82
2023-04-15T10:39:36.530Z,16.92
2023-04-15T10:42:13.095Z,17.23
2023-04-15T10:44:43.707Z,17.51
2023-04-15T10:47:20.276Z,17.42
2023-04-15T10:49:48.154Z,17.56
2023-04-15T10:52:17.058Z,17.44
2023-04-15T10:54:44.208Z,17.40
2023-04-15T10:57:21.962Z,17.07
2023-04-15T11:00:14.873Z,17.19
2023-04-15T11:02:55.135Z,17.41
2023-04-15T11:05:42.105Z,17.21
2023-04-15T11:08:25.966Z,17.94
2023-04-15T11:10:53.176Z,17.29
2023-04-15T11:13:24.861Z,16.94
2023-04-15T11:16:08.400Z,17.19
2023-04-15T11:18:34.968Z,16.99
2023-04-15T11:21:03.675Z,17.21
2023-04-15T11:23:41.543Z,17.43
2023-04-15T11:26:12.584Z,17.64
2023-04-15T11:31:30.103Z,17.56
2023-04-15T11:33:59.050Z,17.76
2023-04-15T11:36:30.204Z,17.91
2023-04-15T11:38:57.862Z,17.61
2023-04-15T11:41:24.431Z,17.74
2023-04-15T11:43:54.012Z,18.07
2023-04-15T11:46:22.006Z,17.75
2023-04-15T11:48:48.696Z,17.50
2023-04-15T11:51:15.343Z,17.75
2023-04-15T11:53:42.138Z,17.93
2023-04-15T11:56:10.372Z,18.12
2023-04-15T11:58:38.327Z,18.44
2023-04-15T12:01:05.607Z,18.39
2023-04-15T12:03:44.065Z,18.29
2023-04-15T12:06:14.144Z,18.08
2023-04-15T12:08:56.311Z,18.14
2023-04-15T12:11:33.349Z,18.13
2023-04-15T12:14:13.789Z,18.22
2023-04-15T12:19:45.569Z,18.52
2023-04-15T12:22:13.107Z,18.29
2023-04-15T12:24:39.948Z,18.26
2023-04-15T12:27:29.950Z,18.10
2023-04-15T12:30:04.035Z,17.89
2023-04-15T12:32:30.584Z,18.10
2023-04-15T12:34:57.175Z,17.89
2023-04-15T12:37:24.030Z,17.91
2023-04-15T12:39:58.908Z,18.06
2023-04-15T12:42:25.554Z,18.14
2023-04-15T12:44:52.279Z,18.22
2023-04-15T12:47:29.222Z,18.31
2023-04-15T12:49:55.984Z,18.20
2023-04-15T12:52:24.719Z,18.10
2023-04-15T12:55:27.879Z,18.36
2023-04-15T12:57:55.049Z,19.09
2023-04-15T13:00:21.796Z,19.65
2023-04-15T13:02:49.231Z,19.88
2023-04-15T13:05:16.199Z,19.68
2023-04-15T13:07:42.766Z,20.09
2023-04-15T13:10:09.590Z,20.12
2023-04-15T13:12:42.967Z,20.12
2023-04-15T13:15:14.635Z,19.53
2023-04-15T13:17:41.263Z,19.43
2023-04-15T13:20:09.023Z,19.51
2023-04-15T13:22:35.628Z,19.97
2023-04-15T13:25:02.184Z,19.62
2023-04-15T13:27:28.892Z,20.56
2023-04-15T13:29:55.755Z,19.22
2023-04-15T13:32:22.457Z,19.01
2023-04-15T13:34:49.057Z,18.90
2023-04-15T13:37:15.824Z,18.74
2023-04-15T13:39:42.557Z,18.67
2023-04-15T13:42:09.315Z,18.51
2023-04-15T13:44:36.024Z,18.67
2023-04-15T13:47:02.604Z,18.54
2023-04-15T13:49:29.632Z,18.31
2023-04-15T13:51:58.858Z,18.21
2023-04-15T13:54:25.550Z,17.97
2023-04-15T13:57:05.700Z,18.07
2023-04-15T13:59:34.998Z,18.08
2023-04-15T14:02:02.067Z,17.95
2023-04-15T14:04:28.858Z,17.86
2023-04-15T14:06:56.431Z,17.74
2023-04-15T14:09:26.150Z,17.67
2023-04-15T14:11:53.118Z,17.67
2023-04-15T14:14:19.713Z,17.74
2023-04-15T14:16:46.394Z,17.78
2023-04-15T14:19:13.120Z,17.83
2023-04-15T14:21:39.776Z,17.82
2023-04-15T14:24:08.262Z,17.73
2023-04-15T14:26:34.886Z,17.73
2023-04-15T14:29:01.574Z,17.66
2023-04-15T14:31:28.398Z,17.89
2023-04-15T14:33:57.956Z,19.28
2023-04-15T14:36:27.640Z,20.47
2023-04-15T14:38:57.065Z,21.03
2023-04-15T14:41:24.035Z,20.55
2023-04-15T14:43:50.764Z,19.71
2023-04-15T14:46:17.505Z,19.20
2023-04-15T14:48:44.280Z,18.88
2023-04-15T14:51:11.118Z,18.82
2023-04-15T14:53:37.828Z,18.80
2023-04-15T14:56:04.678Z,19.54
2023-04-15T14:58:32.822Z,20.62
2023-04-15T15:01:00.117Z,21.79
2023-04-15T15:03:27.120Z,22.42
2023-04-15T15:05:54.296Z,23.06
2023-04-15T15:08:21.115Z,23.23
2023-04-15T15:10:49.759Z,23.48
2023-04-15T15:13:17.827Z,23.48
2023-04-15T15:15:44.679Z,23.65
2023-04-15T15:18:11.587Z,23.82
2023-04-15T15:20:38.571Z,24.07
2023-04-15T15:23:05.270Z,24.08
2023-04-15T15:25:31.951Z,24.63
2023-04-15T15:27:58.680Z,25.24
2023-04-15T15:30:25.550Z,24.24
2023-04-15T15:32:52.326Z,24.11
2023-04-15T15:35:23.143Z,24.71
2023-04-15T15:37:49.807Z,24.57
2023-04-15T15:40:16.452Z,24.60
2023-04-15T15:42:43.137Z,24.99
2023-04-15T15:45:10.217Z,24.58
2023-04-15T15:47:37.040Z,24.75
2023-04-15T15:50:06.017Z,24.86
2023-04-15T15:52:33.042Z,24.77
2023-04-15T15:54:59.825Z,24.63
2023-04-15T15:57:26.529Z,24.82
2023-04-15T16:00:04.772Z,24.83
2023-04-15T16:03:04.254Z,23.92
2023-04-15T16:05:24.714Z,24.38
2023-04-15T16:07:51.516Z,24.29
2023-04-15T16:10:18.128Z,24.03
2023-04-15T16:12:44.814Z,23.93
2023-04-15T16:15:12.561Z,23.94
2023-04-15T16:17:39.268Z,23.46
2023-04-15T16:20:07.081Z,22.98
2023-04-15T16:22:35.022Z,20.03
2023-04-15T16:25:01.809Z,19.27
2023-04-15T16:27:28.764Z,19.63
2023-04-15T16:29:55.341Z,20.46
2023-04-15T16:32:22.057Z,20.57
2023-04-15T16:34:48.776Z,18.55
2023-04-15T16:37:15.533Z,17.52
2023-04-15T16:39:42.236Z,16.96
2023-04-15T16:42:09.712Z,16.68
2023-04-15T16:44:36.326Z,16.40
2023-04-15T16:47:03.251Z,16.15
2023-04-15T16:49:30.399Z,15.94
2023-04-15T16:51:57.708Z,15.70
2023-04-15T16:54:24.367Z,15.71
2023-04-15T16:56:51.184Z,15.66
2023-04-15T16:59:17.802Z,15.66
2023-04-15T17:01:45.436Z,15.43
2023-04-15T17:04:12.083Z,15.09
2023-04-15T17:06:39.102Z,14.86
2023-04-15T17:09:06.001Z,14.64
2023-04-15T17:11:32.994Z,14.51
2023-04-15T17:13:59.673Z,14.41
2023-04-15T17:16:26.621Z,14.22
2023-04-15T17:18:53.303Z,14.22
2023-04-15T17:21:19.905Z,14.17
2023-04-15T17:23:46.801Z,14.17
2023-04-15T17:26:13.469Z,14.08
2023-04-15T17:28:40.074Z,13.96
2023-04-15T17:31:07.247Z,13.81
2023-04-15T17:34:02.053Z,13.66
2023-04-15T17:36:20.582Z,13.52
2023-04-15T17:38:47.251Z,13.41
2023-04-15T17:41:14.108Z,13.27
2023-04-15T17:43:40.729Z,13.09
2023-04-15T17:46:07.918Z,12.97
2023-04-15T17:48:34.706Z,12.87
2023-04-15T17:51:01.353Z,12.90
2023-04-15T17:53:27.953Z,12.81
2023-04-15T17:55:54.876Z,12.75
2023-04-15T17:58:21.652Z,12.54
2023-04-15T18:00:48.345Z,12.35
2023-04-15T18:03:15.472Z,12.32
2023-04-15T18:05:42.730Z,12.31
2023-04-15T18:08:09.894Z,12.12
2023-04-15T18:10:39.211Z,12.02
2023-04-15T18:13:06.490Z,11.92
2023-04-15T18:15:33.475Z,11.95
2023-04-15T18:18:00.544Z,11.89
2023-04-15T18:20:27.921Z,11.76
2023-04-15T18:22:54.739Z,11.65
2023-04-15T18:25:21.505Z,11.54
2023-04-15T18:27:48.237Z,11.46
2023-04-15T18:30:15.125Z,11.33
2023-04-15T18:32:41.925Z,11.34
2023-04-15T18:35:11.753Z,11.38
2023-04-15T18:37:38.654Z,11.31
2023-04-15T18:40:07.246Z,11.19
2023-04-15T18:42:34.050Z,11.09
2023-04-15T18:45:00.956Z,11.02
2023-04-15T18:47:28.009Z,10.94
2023-04-15T18:49:54.699Z,10.92
2023-04-15T18:52:21.547Z,10.84
2023-04-15T18:54:51.378Z,10.72
2023-04-15T18:57:28.472Z,10.65
2023-04-15T19:00:01.545Z,10.62
2023-04-15T19:02:28.394Z,10.60
2023-04-15T19:04:55.556Z,10.50
2023-04-15T19:07:23.454Z,10.39
2023-04-15T19:09:50.241Z,10.32
2023-04-15T19:12:16.831Z,10.29
2023-04-15T19:14:43.457Z,10.32
2023-04-15T19:17:10.288Z,10.33
2023-04-15T19:19:37.087Z,10.19
2023-04-15T19:22:03.695Z,10.17
2023-04-15T19:24:33.883Z,10.06
2023-04-15T19:27:01.765Z,10.03
2023-04-15T19:29:31.481Z,10.05
2023-04-15T19:31:58.252Z,10.00
2023-04-15T19:34:25.195Z,10.06
2023-04-15T19:36:51.974Z,9.92
2023-04-15T19:39:19.743Z,9.83
2023-04-15T19:41:47.341Z,9.73
2023-04-15T19:44:14.256Z,9.73
2023-04-15T19:46:43.614Z,9.73
2023-04-15T19:49:10.954Z,9.59
2023-04-15T19:51:37.582Z,9.54
2023-04-15T19:54:04.238Z,9.25
2023-04-15T19:56:33.606Z,9.34
2023-04-15T19:59:02.149Z,9.43
2023-04-15T20:01:28.963Z,9.40
2023-04-15T20:03:56.077Z,9.36
2023-04-15T20:06:22.942Z,9.28
2023-04-15T20:08:49.795Z,9.28
2023-04-15T20:11:17.177Z,9.38
2023-04-15T20:13:43.896Z,9.32
2023-04-15T20:16:11.849Z,9.07
2023-04-15T20:18:38.485Z,9.00
2023-04-15T20:21:05.117Z,8.99
2023-04-15T20:23:31.858Z,8.93
2023-04-15T20:25:58.512Z,8.78
2023-04-15T20:28:27.535Z,8.68
2023-04-15T20:30:54.162Z,8.69
2023-04-15T20:33:22.361Z,8.67
2023-04-15T20:35:49.008Z,8.51
2023-04-15T20:38:16.393Z,8.37
2023-04-15T20:40:43.450Z,8.46
2023-04-15T20:43:10.286Z,8.46
2023-04-15T20:45:37.273Z,8.37
2023-04-15T20:48:04.221Z,8.18
2023-04-15T20:50:31.253Z,8.07
2023-04-15T20:52:57.873Z,8.02
2023-04-15T20:55:24.512Z,7.78
2023-04-15T20:57:51.382Z,7.74
2023-04-15T21:00:18.071Z,7.69
2023-04-15T21:02:44.780Z,7.70
2023-04-15T21:05:11.523Z,7.65
2023-04-15T21:07:38.156Z,7.70
2023-04-15T21:10:05.054Z,7.79
2023-04-15T21:12:31.688Z,7.69
2023-04-15T21:14:58.342Z,7.70
2023-04-15T21:17:25.162Z,7.65
2023-04-15T21:19:51.825Z,7.39
2023-04-15T21:22:18.409Z,7.30
2023-04-15T21:24:44.959Z,7.24
2023-04-15T21:27:11.566Z,7.36
2023-04-15T21:29:40.387Z,7.44
2023-04-15T21:32:07.129Z,7.20
2023-04-15T21:34:33.936Z,6.97
2023-04-15T21:37:00.650Z,6.82
2023-04-15T21:39:27.287Z,6.67
2023-04-15T21:41:54.036Z,6.58
2023-04-15T21:44:20.675Z,6.60
2023-04-15T21:46:47.318Z,6.71
2023-04-15T21:49:14.160Z,6.77
2023-04-15T21:51:40.960Z,6.67
2023-04-15T21:54:07.702Z,6.68
2023-04-15T21:56:34.331Z,6.67
2023-04-15T21:59:01.217Z,6.64
2023-04-15T22:01:27.910Z,6.62
2023-04-15T22:03:54.822Z,6.60
2023-04-15T22:06:22.032Z,6.57
2023-04-15T22:09:11.358Z,6.57
2023-04-15T22:11:38.024Z,6.57
2023-04-15T22:14:05.803Z,6.53
2023-04-15T22:16:32.454Z,6.56
2023-04-15T22:18:59.097Z,6.64
2023-04-15T22:21:26.685Z,6.58
2023-04-15T22:23:53.414Z,6.50
2023-04-15T22:26:39.909Z,6.44
2023-04-15T22:29:06.953Z,6.36
2023-04-15T22:31:33.725Z,6.30
2023-04-15T22:34:00.284Z,6.24
2023-04-15T22:36:27.432Z,6.17
2023-04-15T22:38:54.175Z,6.03
2023-04-15T22:41:20.997Z,6.01
2023-04-15T22:43:47.642Z,5.85
2023-04-15T22:46:14.617Z,5.79
2023-04-15T22:48:42.532Z,5.71
2023-04-15T22:51:09.250Z,5.72
2023-04-15T22:53:35.950Z,5.72
2023-04-15T22:56:02.714Z,5.66
2023-04-15T22:58:32.124Z,5.68
2023-04-15T23:00:59.214Z,5.64
2023-04-15T23:03:26.011Z,5.63
2023-04-15T23:05:52.800Z,5.56
2023-04-15T23:08:19.374Z,5.56
2023-04-15T23:10:46.520Z,5.55
2023-04-15T23:13:13.212Z,5.47
2023-04-15T23:15:39.878Z,5.46
2023-04-15T23:18:06.611Z,5.41
2023-04-15T23:20:33.990Z,5.47
2023-04-15T23:23:00.707Z,5.41
2023-04-15T23:25:27.364Z,5.34
2023-04-15T23:27:53.970Z,5.22
2023-04-15T23:30:20.588Z,5.09
2023-04-15T23:32:47.255Z,5.08
2023-04-15T23:35:13.869Z,5.11
2023-04-15T23:37:40.655Z,5.14
2023-04-15T23:40:07.907Z,5.07
2023-04-15T23:42:34.551Z,4.98
2023-04-15T23:45:01.253Z,4.98
2023-04-15T23:47:27.875Z,4.96
2023-04-15T23:49:54.468Z,4.88
2023-04-15T23:52:21.180Z,4.88
2023-04-15T23:54:47.805Z,4.87
2023-04-15T23:57:14.488Z,4.78
2023-04-15T23:59:41.098Z,4.73
